createdAt,value
2022-10-19T00:00:27.493Z,37.88
2022-10-19T00:02:58.511Z,37.00
2022-10-19T00:05:30.265Z,35.78
2022-10-19T00:08:02.667Z,36.85
2022-10-19T00:10:33.825Z,38.45
2022-10-19T00:13:05.056Z,38.02
2022-10-19T00:15:36.196Z,36.90
2022-10-19T00:18:07.240Z,35.00
2022-10-19T00:20:39.262Z,33.58
2022-10-19T00:23:10.313Z,33.63
2022-10-19T00:25:41.403Z,33.73
2022-10-19T00:28:12.430Z,34.08
2022-10-19T00:30:43.514Z,31.87
2022-10-19T00:33:14.632Z,32.20
2022-10-19T00:35:45.639Z,32.00
2022-10-19T00:38:16.713Z,32.03
2022-10-19T00:40:48.783Z,31.68
2022-10-19T00:43:21.895Z,32.10
2022-10-19T00:45:53.472Z,31.20
2022-10-19T00:48:32.874Z,31.75
2022-10-19T00:51:04.222Z,30.62
2022-10-19T00:53:35.243Z,29.45
2022-10-19T00:56:08.639Z,29.32
2022-10-19T00:58:39.674Z,30.23
2022-10-19T01:01:13.284Z,28.40
2022-10-19T01:03:44.531Z,29.00
2022-10-19T01:06:17.141Z,29.48
2022-10-19T01:08:48.161Z,28.90
2022-10-19T01:11:33.649Z,28.67
2022-10-19T01:14:15.762Z,29.57
2022-10-19T01:17:00.936Z,30.85
2022-10-19T01:20:09.062Z,27.13
2022-10-19T01:22:45.688Z,28.83
2022-10-19T01:25:40.140Z,28.17
2022-10-19T01:28:25.310Z,27.25
2022-10-19T01:31:04.926Z,26.82
2022-10-19T01:36:39.925Z,27.13
2022-10-19T01:39:25.444Z,27.67
2022-10-19T01:42:16.912Z,27.10
2022-10-19T01:44:56.581Z,26.77
2022-10-19T01:47:36.311Z,27.10
2022-10-19T01:50:09.827Z,26.65
2022-10-19T01:52:43.039Z,26.93
2022-10-19T01:55:15.303Z,26.68
2022-10-19T01:57:47.367Z,26.77
2022-10-19T02:00:19.959Z,25.35
2022-10-19T02:02:53.151Z,25.77
2022-10-19T02:05:26.626Z,26.77
2022-10-19T02:08:00.242Z,25.55
2022-10-19T02:10:33.386Z,25.32
2022-10-19T02:13:05.945Z,25.30
2022-10-19T02:15:39.941Z,24.87
2022-10-19T02:18:12.947Z,24.75
2022-10-19T02:20:43.933Z,24.77
2022-10-19T02:23:17.261Z,26.07
2022-10-19T02:25:48.512Z,24.85
2022-10-19T02:28:19.659Z,24.15
2022-10-19T02:30:51.025Z,25.48
2022-10-19T02:33:22.046Z,23.40
2022-10-19T02:35:53.526Z,24.35
2022-10-19T02:38:26.427Z,23.62
2022-10-19T02:41:18.294Z,24.02
2022-10-19T02:43:52.707Z,24.20
2022-10-19T02:46:33.006Z,23.57
2022-10-19T02:49:06.431Z,24.43
2022-10-19T02:51:42.724Z,24.82
2022-10-19T02:54:13.508Z,23.30
2022-10-19T02:56:44.418Z,23.70
2022-10-19T02:59:16.548Z,24.47
2022-10-19T03:01:47.604Z,22.32
2022-10-19T03:04:19.777Z,23.10
2022-10-19T03:06:50.712Z,24.63
2022-10-19T03:09:21.696Z,23.65
2022-10-19T03:11:56.103Z,22.77
2022-10-19T03:14:27.643Z,24.02
2022-10-19T03:16:59.078Z,24.25
2022-10-19T03:19:35.237Z,24.30
2022-10-19T03:22:06.969Z,24.00
2022-10-19T03:24:43.430Z,23.30
2022-10-19T03:27:14.765Z,23.55
2022-10-19T03:29:46.180Z,24.23
2022-10-19T03:32:18.588Z,23.73
2022-10-19T03:34:49.536Z,23.75
2022-10-19T03:37:20.447Z,22.48
2022-10-19T03:39:51.266Z,22.02
2022-10-19T03:42:22.630Z,22.73
2022-10-19T03:44:53.746Z,22.93
2022-10-19T03:47:25.504Z,23.12
2022-10-19T03:49:56.486Z,22.32
2022-10-19T03:52:27.396Z,21.93
2022-10-19T03:54:58.301Z,22.37
2022-10-19T03:57:29.122Z,22.02
2022-10-19T04:00:00.006Z,21.62
2022-10-19T04:02:31.443Z,21.90
2022-10-19T04:05:02.329Z,22.00
2022-10-19T04:07:33.402Z,22.82
2022-10-19T04:10:04.701Z,22.90
2022-10-19T04:12:36.524Z,21.82
2022-10-19T04:15:08.244Z,22.80
2022-10-19T04:17:39.133Z,22.35
2022-10-19T04:20:10.666Z,22.15
2022-10-19T04:22:41.414Z,21.68
2022-10-19T04:25:13.881Z,21.50
2022-10-19T04:27:45.789Z,21.70
2022-10-19T04:30:17.029Z,21.05
2022-10-19T04:32:48.205Z,22.30
2022-10-19T04:35:19.238Z,20.08
2022-10-19T04:37:50.267Z,21.17
2022-10-19T04:40:21.186Z,20.15
2022-10-19T04:42:52.032Z,21.95
2022-10-19T04:45:23.229Z,20.40
2022-10-19T04:47:55.351Z,21.30
2022-10-19T04:50:27.413Z,20.15
2022-10-19T04:52:58.669Z,19.17
2022-10-19T04:55:29.770Z,20.25
2022-10-19T04:58:01.220Z,20.62
2022-10-19T05:00:33.650Z,18.75
2022-10-19T05:03:09.149Z,19.55
2022-10-19T05:05:40.208Z,20.15
2022-10-19T05:08:12.034Z,20.32
2022-10-19T05:10:47.003Z,18.85
2022-10-19T05:13:16.513Z,19.15
2022-10-19T05:15:49.032Z,18.80
2022-10-19T05:18:21.686Z,19.50
2022-10-19T05:20:53.503Z,19.20
2022-10-19T05:23:24.625Z,18.60
2022-10-19T05:26:06.603Z,18.10
2022-10-19T05:28:37.893Z,19.07
2022-10-19T05:31:25.209Z,18.40
2022-10-19T05:33:57.353Z,18.50
2022-10-19T05:36:36.642Z,18.70
2022-10-19T05:39:09.716Z,19.00
2022-10-19T05:41:40.716Z,18.75
2022-10-19T05:44:12.899Z,18.62
2022-10-19T05:46:43.967Z,19.57
2022-10-19T05:49:16.579Z,18.25
2022-10-19T06:00:23.862Z,18.65
2022-10-19T06:02:58.993Z,19.27
2022-10-19T06:05:27.055Z,19.62
2022-10-19T06:08:00.955Z,19.20
2022-10-19T06:10:31.836Z,19.48
2022-10-19T06:13:02.845Z,18.23
2022-10-19T06:15:38.205Z,17.87
2022-10-19T06:18:11.231Z,17.80
2022-10-19T06:20:43.969Z,18.07
2022-10-19T06:23:14.915Z,18.42
2022-10-19T06:25:48.590Z,18.87
2022-10-19T06:28:19.767Z,17.92
2022-10-19T06:30:51.181Z,18.35
2022-10-19T06:33:22.258Z,18.73
2022-10-19T06:35:53.124Z,17.87
2022-10-19T06:38:24.703Z,17.10
2022-10-19T06:40:55.753Z,17.42
2022-10-19T06:43:26.775Z,18.35
2022-10-19T06:45:57.808Z,18.32
2022-10-19T06:48:28.744Z,17.85
2022-10-19T06:51:06.193Z,17.52
2022-10-19T06:53:36.258Z,17.85
2022-10-19T06:56:08.772Z,17.40
2022-10-19T06:58:41.290Z,17.32
2022-10-19T07:01:13.554Z,18.77
2022-10-19T07:03:44.915Z,18.52
2022-10-19T07:06:20.622Z,18.90
2022-10-19T07:08:52.337Z,18.70
2022-10-19T07:11:24.868Z,17.35
2022-10-19T07:13:56.128Z,17.45
2022-10-19T07:16:27.205Z,18.57
2022-10-19T07:18:58.091Z,18.20
2022-10-19T07:21:33.752Z,17.90
2022-10-19T07:24:04.274Z,16.97
2022-10-19T07:26:35.298Z,17.65
2022-10-19T07:29:07.078Z,18.30
2022-10-19T07:31:37.996Z,18.07
2022-10-19T07:34:09.167Z,17.67
2022-10-19T07:36:40.921Z,18.23
2022-10-19T07:39:14.708Z,17.98
2022-10-19T07:41:46.269Z,18.17
2022-10-19T07:44:18.050Z,18.35
2022-10-19T07:46:51.198Z,18.57
2022-10-19T07:49:23.016Z,18.07
2022-10-19T07:51:55.279Z,16.82
2022-10-19T07:54:26.319Z,17.70
2022-10-19T07:56:59.817Z,18.23
2022-10-19T07:59:30.939Z,17.92
2022-10-19T08:02:03.121Z,19.15
2022-10-19T08:05:00.852Z,18.37
2022-10-19T08:07:06.239Z,18.77
2022-10-19T08:09:53.926Z,17.30
2022-10-19T08:12:14.579Z,18.90
2022-10-19T08:14:41.952Z,17.37
2022-10-19T08:17:15.731Z,18.45
2022-10-19T08:19:47.342Z,18.17
2022-10-19T08:22:19.120Z,18.92
2022-10-19T08:24:50.935Z,18.55
2022-10-19T08:27:22.025Z,18.02
2022-10-19T08:29:52.988Z,19.17
2022-10-19T08:32:24.393Z,18.52
2022-10-19T08:35:08.452Z,19.20
2022-10-19T08:37:44.781Z,18.92
2022-10-19T08:40:21.923Z,18.65
2022-10-19T08:43:04.518Z,18.75
2022-10-19T08:45:59.016Z,19.70
2022-10-19T08:48:38.620Z,19.12
2022-10-19T08:51:15.190Z,18.27
2022-10-19T08:53:47.943Z,19.00
2022-10-19T08:56:49.864Z,19.70
2022-10-19T08:59:13.781Z,19.67
2022-10-19T09:01:53.139Z,19.67
2022-10-19T09:04:42.970Z,19.32
2022-10-19T09:07:38.411Z,19.02
2022-10-19T09:10:17.977Z,19.12
2022-10-19T09:12:56.443Z,20.02
2022-10-19T09:15:29.186Z,18.80
2022-10-19T09:18:00.020Z,18.65
2022-10-19T09:20:36.071Z,19.87
2022-10-19T09:23:24.326Z,19.42
2022-10-19T09:25:56.976Z,19.02
2022-10-19T09:28:42.102Z,19.48
2022-10-19T09:31:21.448Z,18.48
2022-10-19T09:33:54.830Z,19.00
2022-10-19T09:36:33.302Z,18.87
2022-10-19T09:39:05.934Z,19.27
2022-10-19T09:41:37.602Z,19.57
2022-10-19T09:44:08.842Z,19.85
2022-10-19T09:46:53.936Z,19.30
2022-10-19T09:49:33.617Z,19.57
2022-10-19T09:52:04.695Z,19.62
2022-10-19T09:54:41.047Z,18.82
2022-10-19T09:57:14.906Z,19.98
2022-10-19T09:59:45.858Z,19.70
2022-10-19T10:02:24.966Z,21.10
2022-10-19T10:05:07.596Z,19.60
2022-10-19T10:07:41.013Z,19.65
2022-10-19T10:10:33.693Z,20.50
2022-10-19T10:13:05.399Z,19.48
2022-10-19T10:15:44.753Z,21.73
2022-10-19T10:18:21.034Z,21.07
2022-10-19T10:21:07.161Z,21.30
2022-10-19T10:26:10.734Z,20.90
2022-10-19T10:28:44.138Z,22.62
2022-10-19T10:31:15.165Z,22.90
2022-10-19T10:33:46.337Z,22.37
2022-10-19T10:36:17.899Z,22.85
2022-10-19T10:38:53.905Z,22.40
2022-10-19T10:41:30.828Z,22.48
2022-10-19T10:44:05.222Z,23.15
2022-10-19T10:46:50.824Z,23.57
2022-10-19T10:49:24.434Z,23.90
2022-10-19T10:52:00.682Z,24.70
2022-10-19T10:54:33.020Z,25.68
2022-10-19T10:57:15.769Z,22.73
2022-10-19T10:59:58.361Z,25.60
2022-10-19T11:02:57.213Z,24.47
2022-10-19T11:05:30.588Z,25.52
2022-10-19T11:08:16.059Z,25.43
2022-10-19T11:11:01.561Z,34.58
2022-10-19T11:13:50.187Z,24.57
2022-10-19T11:16:31.595Z,23.42
2022-10-19T11:19:20.811Z,23.38
2022-10-19T11:22:17.014Z,23.70
2022-10-19T11:25:10.978Z,24.47
2022-10-19T11:28:07.086Z,23.77
2022-10-19T11:30:45.336Z,26.20
2022-10-19T11:36:33.076Z,26.90
2022-10-19T11:39:15.060Z,26.15
2022-10-19T11:41:54.539Z,26.95
2022-10-19T11:44:40.095Z,26.50
2022-10-19T11:47:35.484Z,27.05
2022-10-19T11:50:26.059Z,29.30
2022-10-19T11:53:07.939Z,27.85
2022-10-19T11:55:50.361Z,30.40
2022-10-19T11:58:48.901Z,29.18
2022-10-19T12:01:24.935Z,29.10
2022-10-19T12:04:07.266Z,30.65
2022-10-19T12:06:40.629Z,30.35
2022-10-19T12:09:42.289Z,29.25
2022-10-19T12:12:32.156Z,29.12
2022-10-19T12:15:20.748Z,31.40
2022-10-19T12:17:55.372Z,29.35
2022-10-19T12:20:35.048Z,28.23
2022-10-19T12:23:08.430Z,27.90
2022-10-19T12:25:41.847Z,29.45
2022-10-19T12:28:15.186Z,29.12
2022-10-19T12:30:47.000Z,29.27
2022-10-19T12:33:24.570Z,28.65
2022-10-19T12:36:22.014Z,30.10
2022-10-19T12:39:12.208Z,30.12
2022-10-19T12:41:45.609Z,28.35
2022-10-19T12:47:00.814Z,30.97
2022-10-19T12:49:32.807Z,33.60
2022-10-19T12:52:07.678Z,32.83
2022-10-19T12:54:44.093Z,34.27
2022-10-19T12:57:35.538Z,34.40
2022-10-19T13:00:09.362Z,33.45
2022-10-19T13:02:47.724Z,34.67
2022-10-19T13:05:29.202Z,33.60
2022-10-19T13:08:03.506Z,34.05
2022-10-19T13:10:35.518Z,33.95
2022-10-19T13:13:06.866Z,35.28
2022-10-19T13:15:40.213Z,35.75
2022-10-19T13:18:22.262Z,37.90
2022-10-19T13:20:57.280Z,37.28
2022-10-19T13:23:33.812Z,35.75
2022-10-19T13:26:26.716Z,36.68
2022-10-19T13:28:58.879Z,37.42
2022-10-19T13:31:34.719Z,37.42
2022-10-19T13:34:08.102Z,38.17
2022-10-19T13:36:40.447Z,39.45
2022-10-19T13:39:15.900Z,39.70
2022-10-19T13:41:51.722Z,39.00
2022-10-19T13:44:26.002Z,40.35
2022-10-19T13:47:20.727Z,38.85
2022-10-19T13:50:15.359Z,38.17
2022-10-19T13:52:54.279Z,35.60
2022-10-19T13:55:47.161Z,33.02
2022-10-19T13:58:24.734Z,33.10
2022-10-19T14:01:20.740Z,33.58
2022-10-19T14:04:05.749Z,33.05
2022-10-19T14:06:39.156Z,32.08
2022-10-19T14:09:30.463Z,32.13
2022-10-19T14:12:19.028Z,32.67
2022-10-19T14:14:50.098Z,30.62
2022-10-19T14:17:24.835Z,30.85
2022-10-19T14:19:58.255Z,31.85
2022-10-19T14:22:37.851Z,30.55
2022-10-19T14:25:11.262Z,31.80
2022-10-19T14:27:42.368Z,31.60
2022-10-19T14:30:30.727Z,31.93
2022-10-19T14:33:03.290Z,31.77
2022-10-19T14:35:42.596Z,31.12
2022-10-19T14:38:22.030Z,30.48
2022-10-19T14:40:55.939Z,31.25
2022-10-19T14:43:30.520Z,30.37
2022-10-19T14:46:17.026Z,29.60
2022-10-19T14:51:27.298Z,28.87
2022-10-19T14:54:27.617Z,28.52
2022-10-19T14:57:03.661Z,28.70
2022-10-19T14:59:52.577Z,29.00
2022-10-19T15:02:29.265Z,28.98
2022-10-19T15:07:39.476Z,28.50
2022-10-19T15:10:12.958Z,30.55
2022-10-19T15:12:45.782Z,30.68
2022-10-19T15:15:32.137Z,30.32
2022-10-19T15:18:05.650Z,30.17
2022-10-19T15:20:49.110Z,31.15
2022-10-19T15:23:46.013Z,30.70
2022-10-19T15:26:28.295Z,31.35
2022-10-19T15:29:14.529Z,30.65
2022-10-19T15:31:45.543Z,31.62
2022-10-19T15:34:32.987Z,30.45
2022-10-19T15:37:06.338Z,31.20
2022-10-19T15:39:42.115Z,31.50
2022-10-19T15:42:43.689Z,32.13
2022-10-19T15:45:36.416Z,32.78
2022-10-19T15:48:19.618Z,32.00
2022-10-19T15:50:53.044Z,31.50
2022-10-19T15:53:25.314Z,32.08
2022-10-19T15:55:58.625Z,31.73
2022-10-19T15:58:30.672Z,32.88
2022-10-19T16:01:01.643Z,32.75
2022-10-19T16:03:33.381Z,33.40
2022-10-19T16:06:04.533Z,32.67
2022-10-19T16:08:35.353Z,33.92
2022-10-19T16:11:06.624Z,33.92
2022-10-19T16:13:37.549Z,34.80
2022-10-19T16:16:11.644Z,35.35
2022-10-19T16:18:42.585Z,35.63
2022-10-19T16:21:13.477Z,36.70
2022-10-19T16:23:44.525Z,37.50
2022-10-19T16:26:17.665Z,36.33
2022-10-19T16:28:49.856Z,36.58
2022-10-19T16:31:21.584Z,36.08
2022-10-19T16:33:53.159Z,35.52
2022-10-19T16:36:23.991Z,35.33
2022-10-19T16:38:54.820Z,35.65
2022-10-19T16:41:25.751Z,36.63
2022-10-19T16:43:59.586Z,34.78
2022-10-19T16:46:30.826Z,36.03
2022-10-19T16:49:01.644Z,35.83
2022-10-19T16:51:40.330Z,34.80
2022-10-19T16:54:13.482Z,36.05
2022-10-19T16:56:49.199Z,35.17
2022-10-19T16:59:21.201Z,35.80
2022-10-19T17:01:54.137Z,34.90
2022-10-19T17:04:25.116Z,35.65
2022-10-19T17:06:56.031Z,34.73
2022-10-19T17:09:43.068Z,36.10
2022-10-19T17:11:58.950Z,35.45
2022-10-19T17:14:32.458Z,34.85
2022-10-19T17:17:03.300Z,35.92
2022-10-19T17:19:34.276Z,35.80
2022-10-19T17:22:06.223Z,35.78
2022-10-19T17:24:38.583Z,36.80
2022-10-19T17:27:10.080Z,34.08
2022-10-19T17:29:40.907Z,36.23
2022-10-19T17:32:11.803Z,35.43
2022-10-19T17:34:42.599Z,35.52
2022-10-19T17:37:13.584Z,34.30
2022-10-19T17:39:44.401Z,35.30
2022-10-19T17:42:16.557Z,34.58
2022-10-19T17:44:50.376Z,34.33
2022-10-19T17:47:23.121Z,34.25
2022-10-19T17:49:54.016Z,34.38
2022-10-19T17:52:24.895Z,34.45
2022-10-19T17:57:29.268Z,35.70
2022-10-19T18:00:00.086Z,34.35
2022-10-19T18:02:30.931Z,33.13
2022-10-19T18:05:01.913Z,36.40
2022-10-19T18:07:33.522Z,33.98
2022-10-19T18:10:04.473Z,33.08
2022-10-19T18:12:35.310Z,36.40
2022-10-19T18:15:06.578Z,37.33
2022-10-19T18:17:37.826Z,41.85
2022-10-19T18:20:10.035Z,38.17
2022-10-19T18:25:12.284Z,35.85
2022-10-19T18:27:43.188Z,38.75
2022-10-19T18:30:14.531Z,38.17
2022-10-19T18:32:45.366Z,40.80
2022-10-19T18:35:16.425Z,40.20
2022-10-19T18:37:47.301Z,36.88
2022-10-19T18:40:18.661Z,35.92
2022-10-19T18:42:49.496Z,36.83
2022-10-19T18:45:20.521Z,35.90
2022-10-19T18:47:51.327Z,35.60
2022-10-19T18:50:22.137Z,34.03
2022-10-19T18:52:53.087Z,35.68
2022-10-19T18:55:23.894Z,35.78
2022-10-19T18:57:55.205Z,36.38
2022-10-19T19:00:26.070Z,38.33
2022-10-19T19:02:57.768Z,35.88
2022-10-19T19:05:28.796Z,37.50
2022-10-19T19:07:59.603Z,37.48
2022-10-19T19:10:30.401Z,35.83
2022-10-19T19:13:01.436Z,34.38
2022-10-19T19:15:32.358Z,34.25
2022-10-19T19:18:03.028Z,33.75
2022-10-19T19:20:33.706Z,33.50
2022-10-19T19:23:04.446Z,34.53
2022-10-19T19:25:35.352Z,33.42
2022-10-19T19:28:06.052Z,35.80
2022-10-19T19:30:38.089Z,36.23
2022-10-19T19:33:08.834Z,35.55
2022-10-19T19:35:47.668Z,36.68
2022-10-19T19:38:19.791Z,37.85
2022-10-19T19:40:50.656Z,40.55
2022-10-19T19:43:21.316Z,38.00
2022-10-19T19:46:06.180Z,35.38
2022-10-19T19:48:35.023Z,32.63
2022-10-19T19:51:05.794Z,32.42
2022-10-19T19:53:36.437Z,33.25
2022-10-19T19:56:13.508Z,33.30
2022-10-19T19:58:45.548Z,32.08
2022-10-19T20:01:19.149Z,32.48
2022-10-19T20:03:50.577Z,32.40
2022-10-19T20:06:25.126Z,32.88
2022-10-19T20:08:54.232Z,32.88
2022-10-19T20:11:26.222Z,32.45
2022-10-19T20:13:56.991Z,32.08
2022-10-19T20:16:30.863Z,32.20
2022-10-19T20:19:09.994Z,31.90
2022-10-19T20:21:47.756Z,32.73
2022-10-19T20:24:18.421Z,31.93
2022-10-19T20:26:49.111Z,32.67
2022-10-19T20:29:19.824Z,32.30
2022-10-19T20:31:50.519Z,33.48
2022-10-19T20:34:21.914Z,33.15
2022-10-19T20:36:53.428Z,32.20
2022-10-19T20:39:24.077Z,33.20
2022-10-19T20:41:54.952Z,33.02
2022-10-19T20:44:25.634Z,34.25
2022-10-19T20:46:56.310Z,32.45
2022-10-19T20:49:27.088Z,32.98
2022-10-19T20:51:57.922Z,32.58
2022-10-19T20:54:28.638Z,32.70
2022-10-19T20:56:59.272Z,32.73
2022-10-19T20:59:29.939Z,33.10
2022-10-19T21:02:00.694Z,33.88
2022-10-19T21:04:31.483Z,33.53
2022-10-19T21:07:02.155Z,32.60
2022-10-19T21:09:32.946Z,33.15
2022-10-19T21:12:03.820Z,33.80
2022-10-19T21:14:34.473Z,33.48
2022-10-19T21:17:05.138Z,34.23
2022-10-19T21:19:35.782Z,33.38
2022-10-19T21:22:07.473Z,34.60
2022-10-19T21:24:40.576Z,33.58
2022-10-19T21:27:13.486Z,33.80
2022-10-19T21:29:44.155Z,35.03
2022-10-19T21:32:14.797Z,36.25
2022-10-19T21:34:45.452Z,35.85
2022-10-19T21:37:16.153Z,36.45
2022-10-19T21:39:46.896Z,37.20
2022-10-19T21:42:17.547Z,41.68
2022-10-19T21:44:48.424Z,49.35
2022-10-19T21:47:20.203Z,42.95
2022-10-19T21:49:50.848Z,39.27
2022-10-19T21:52:21.586Z,37.67
2022-10-19T21:54:52.291Z,35.73
2022-10-19T21:57:22.987Z,36.00
2022-10-19T21:59:53.620Z,32.75
2022-10-19T22:02:24.279Z,34.33
2022-10-19T22:04:54.962Z,34.43
2022-10-19T22:07:25.597Z,33.73
2022-10-19T22:09:56.213Z,35.17
2022-10-19T22:12:26.872Z,35.25
2022-10-19T22:14:57.500Z,34.25
2022-10-19T22:17:28.270Z,35.80
2022-10-19T22:19:58.934Z,33.10
2022-10-19T22:22:29.618Z,33.78
2022-10-19T22:25:00.289Z,34.65
2022-10-19T22:27:31.147Z,34.20
2022-10-19T22:30:01.808Z,32.88
2022-10-19T22:32:32.478Z,34.83
2022-10-19T22:35:03.173Z,35.03
2022-10-19T22:37:33.923Z,34.48
2022-10-19T22:40:04.560Z,34.35
2022-10-19T22:42:35.442Z,33.65
2022-10-19T22:45:06.582Z,36.28
2022-10-19T22:47:37.277Z,37.60
2022-10-19T22:50:10.244Z,35.60
2022-10-19T22:52:41.178Z,36.10
2022-10-19T22:55:13.160Z,36.05
2022-10-19T22:57:43.877Z,39.15
2022-10-19T23:00:15.626Z,37.45
2022-10-19T23:02:46.340Z,36.10
2022-10-19T23:05:17.271Z,36.40
2022-10-19T23:07:47.946Z,36.28
2022-10-19T23:10:19.199Z,35.10
2022-10-19T23:12:54.047Z,36.17
2022-10-19T23:15:25.019Z,34.27
2022-10-19T23:17:55.679Z,35.68
2022-10-19T23:20:26.355Z,35.50
2022-10-19T23:22:57.037Z,35.83
2022-10-19T23:25:27.791Z,36.45
2022-10-19T23:27:59.007Z,37.63
2022-10-19T23:30:29.829Z,37.13
2022-10-19T23:33:00.531Z,36.45
2022-10-19T23:35:31.215Z,36.58
2022-10-19T23:38:01.912Z,34.23
2022-10-19T23:40:32.590Z,37.13
2022-10-19T23:43:03.470Z,34.43
2022-10-19T23:45:34.271Z,34.53
2022-10-19T23:48:05.235Z,35.98
2022-10-19T23:50:35.940Z,36.55
2022-10-19T23:53:06.605Z,35.48
2022-10-19T23:55:37.295Z,34.33
2022-10-19T23:58:07.999Z,35.13
